sensor_id;sensor_type;location;lat;lon;timestamp;pressure;altitude;pressure_sealevel;temperature;humidity
40650;BME280;26342;42.826;23.992;2022-09-09T00:02:08;95452.88;;;20.36;67.18
40650;BME280;26342;42.826;23.992;2022-09-09T00:04:41;95451.28;;;20.27;68.72
40650;BME280;26342;42.826;23.992;2022-09-09T00:07:15;95435.31;;;20.17;69.81
40650;BME280;26342;42.826;23.992;2022-09-09T00:09:47;95444.72;;;20.19;70.56
40650;BME280;26342;42.826;23.992;2022-09-09T00:14:56;95443.13;;;20.18;73.03
40650;BME280;26342;42.826;23.992;2022-09-09T00:18:07;95447.72;;;20.00;72.46
40650;BME280;26342;42.826;23.992;2022-09-09T00:20:41;95447.06;;;19.95;72.60
40650;BME280;26342;42.826;23.992;2022-09-09T00:23:14;95444.63;;;19.85;74.01
40650;BME280;26342;42.826;23.992;2022-09-09T00:25:49;95448.28;;;19.80;74.34
40650;BME280;26342;42.826;23.992;2022-09-09T00:28:23;95439.81;;;19.73;75.37
40650;BME280;26342;42.826;23.992;2022-09-09T00:30:50;95435.34;;;19.68;74.96
40650;BME280;26342;42.826;23.992;2022-09-09T00:33:22;95449.47;;;19.65;76.80
40650;BME280;26342;42.826;23.992;2022-09-09T00:35:56;95448.84;;;19.60;78.38
40650;BME280;26342;42.826;23.992;2022-09-09T00:38:36;95451.44;;;19.51;80.01
40650;BME280;26342;42.826;23.992;2022-09-09T00:41:11;95436.97;;;19.47;80.19
40650;BME280;26342;42.826;23.992;2022-09-09T00:43:40;95435.53;;;19.49;79.88
40650;BME280;26342;42.826;23.992;2022-09-09T00:51:25;95419.22;;;19.32;80.62
40650;BME280;26342;42.826;23.992;2022-09-09T00:57:34;95403.53;;;19.12;82.93
40650;BME280;26342;42.826;23.992;2022-09-09T01:10:51;95398.31;;;18.71;86.93
40650;BME280;26342;42.826;23.992;2022-09-09T01:13:29;95399.91;;;18.72;87.72
40650;BME280;26342;42.826;23.992;2022-09-09T01:15:57;95399.25;;;18.66;88.08
40650;BME280;26342;42.826;23.992;2022-09-09T01:18:29;95394.94;;;18.65;88.12
40650;BME280;26342;42.826;23.992;2022-09-09T01:24:22;95384.75;;;18.48;88.28
40650;BME280;26342;42.826;23.992;2022-09-09T01:26:54;95392.69;;;18.45;87.75
40650;BME280;26342;42.826;23.992;2022-09-09T01:29:22;95400.31;;;18.42;88.09
40650;BME280;26342;42.826;23.992;2022-09-09T01:31:52;95401.53;;;18.36;89.14
40650;BME280;26342;42.826;23.992;2022-09-09T01:34:19;95386.22;;;18.32;89.76
40650;BME280;26342;42.826;23.992;2022-09-09T01:37:12;95385.66;;;18.21;90.87
40650;BME280;26342;42.826;23.992;2022-09-09T01:39:38;95383.19;;;18.11;91.80
40650;BME280;26342;42.826;23.992;2022-09-09T01:42:08;95386.50;;;18.08;92.00
40650;BME280;26342;42.826;23.992;2022-09-09T01:44:34;95389.31;;;18.03;92.33
40650;BME280;26342;42.826;23.992;2022-09-09T01:47:01;95386.78;;;18.06;91.58
40650;BME280;26342;42.826;23.992;2022-09-09T01:49:27;95387.50;;;18.12;91.41
40650;BME280;26342;42.826;23.992;2022-09-09T01:51:54;95394.19;;;18.14;91.71
40650;BME280;26342;42.826;23.992;2022-09-09T01:54:23;95386.56;;;18.17;91.47
40650;BME280;26342;42.826;23.992;2022-09-09T01:57:08;95392.66;;;18.22;92.25
40650;BME280;26342;42.826;23.992;2022-09-09T01:59:48;95399.66;;;18.23;92.95
40650;BME280;26342;42.826;23.992;2022-09-09T02:02:52;95398.38;;;18.21;93.02
40650;BME280;26342;42.826;23.992;2022-09-09T02:08:17;95395.09;;;18.10;94.02
40650;BME280;26342;42.826;23.992;2022-09-09T02:13:14;95404.13;;;17.92;94.93
40650;BME280;26342;42.826;23.992;2022-09-09T02:18:10;95394.31;;;17.68;96.20
40650;BME280;26342;42.826;23.992;2022-09-09T02:20:38;95406.44;;;17.71;97.12
40650;BME280;26342;42.826;23.992;2022-09-09T02:23:05;95409.22;;;17.66;97.12
40650;BME280;26342;42.826;23.992;2022-09-09T02:25:34;95399.03;;;17.63;95.60
40650;BME280;26342;42.826;23.992;2022-09-09T02:28:02;95404.44;;;17.63;96.36
40650;BME280;26342;42.826;23.992;2022-09-09T02:30:30;95398.91;;;17.68;96.21
40650;BME280;26342;42.826;23.992;2022-09-09T02:32:58;95396.94;;;17.73;96.74
40650;BME280;26342;42.826;23.992;2022-09-09T02:35:27;95398.22;;;17.76;96.88
40650;BME280;26342;42.826;23.992;2022-09-09T02:37:59;95399.81;;;17.77;95.38
40650;BME280;26342;42.826;23.992;2022-09-09T02:40:26;95402.44;;;17.82;94.87
40650;BME280;26342;42.826;23.992;2022-09-09T02:42:54;95398.13;;;17.81;96.19
40650;BME280;26342;42.826;23.992;2022-09-09T02:45:25;95394.44;;;17.77;94.73
40650;BME280;26342;42.826;23.992;2022-09-09T02:48:12;95400.03;;;17.80;95.47
40650;BME280;26342;42.826;23.992;2022-09-09T02:51:29;95407.81;;;17.68;97.09
40650;BME280;26342;42.826;23.992;2022-09-09T02:53:59;95410.50;;;17.68;97.64
40650;BME280;26342;42.826;23.992;2022-09-09T02:56:32;95413.09;;;17.59;98.28
40650;BME280;26342;42.826;23.992;2022-09-09T02:59:04;95399.13;;;17.57;99.29
40650;BME280;26342;42.826;23.992;2022-09-09T03:01:30;95402.22;;;17.51;99.25
40650;BME280;26342;42.826;23.992;2022-09-09T03:03:55;95400.63;;;17.50;99.73
40650;BME280;26342;42.826;23.992;2022-09-09T03:06:20;95404.72;;;17.47;99.92
40650;BME280;26342;42.826;23.992;2022-09-09T03:08:46;95403.94;;;17.47;99.93
40650;BME280;26342;42.826;23.992;2022-09-09T03:11:14;95398.13;;;17.40;99.63
40650;BME280;26342;42.826;23.992;2022-09-09T03:13:39;95409.91;;;17.30;100.00
40650;BME280;26342;42.826;23.992;2022-09-09T03:16:05;95397.09;;;17.36;99.97
40650;BME280;26342;42.826;23.992;2022-09-09T03:18:30;95388.22;;;17.35;97.98
40650;BME280;26342;42.826;23.992;2022-09-09T03:20:57;95385.13;;;17.42;97.89
40650;BME280;26342;42.826;23.992;2022-09-09T03:23:23;95388.84;;;17.46;97.12
40650;BME280;26342;42.826;23.992;2022-09-09T03:25:49;95385.03;;;17.47;97.71
40650;BME280;26342;42.826;23.992;2022-09-09T03:28:15;95382.63;;;17.45;98.61
40650;BME280;26342;42.826;23.992;2022-09-09T03:30:41;95398.41;;;17.52;100.00
40650;BME280;26342;42.826;23.992;2022-09-09T03:33:06;95400.63;;;17.50;100.00
40650;BME280;26342;42.826;23.992;2022-09-09T03:35:31;95412.50;;;17.49;100.00
40650;BME280;26342;42.826;23.992;2022-09-09T03:37:57;95405.22;;;17.49;100.00
40650;BME280;26342;42.826;23.992;2022-09-09T03:40:22;95398.41;;;17.52;100.00
40650;BME280;26342;42.826;23.992;2022-09-09T03:42:48;95399.72;;;17.54;99.85
40650;BME280;26342;42.826;23.992;2022-09-09T03:45:14;95391.63;;;17.54;99.31
40650;BME280;26342;42.826;23.992;2022-09-09T03:47:39;95406.09;;;17.58;97.96
40650;BME280;26342;42.826;23.992;2022-09-09T03:50:06;95405.41;;;17.53;97.56
40650;BME280;26342;42.826;23.992;2022-09-09T03:52:38;95412.78;;;17.61;96.73
40650;BME280;26342;42.826;23.992;2022-09-09T03:55:04;95418.09;;;17.52;99.02
40650;BME280;26342;42.826;23.992;2022-09-09T03:57:31;95418.22;;;17.47;100.00
40650;BME280;26342;42.826;23.992;2022-09-09T03:59:57;95422.28;;;17.45;100.00
40650;BME280;26342;42.826;23.992;2022-09-09T04:02:23;95424.50;;;17.43;100.00
40650;BME280;26342;42.826;23.992;2022-09-09T04:04:48;95413.78;;;17.38;100.00
40650;BME280;26342;42.826;23.992;2022-09-09T04:07:14;95418.28;;;17.42;100.00
40650;BME280;26342;42.826;23.992;2022-09-09T04:09:39;95422.50;;;17.48;100.00
40650;BME280;26342;42.826;23.992;2022-09-09T04:12:05;95429.50;;;17.49;100.00
40650;BME280;26342;42.826;23.992;2022-09-09T04:14:31;95425.78;;;17.45;100.00
40650;BME280;26342;42.826;23.992;2022-09-09T04:16:57;95420.50;;;17.40;100.00
40650;BME280;26342;42.826;23.992;2022-09-09T04:19:24;95421.28;;;17.41;100.00
40650;BME280;26342;42.826;23.992;2022-09-09T04:21:50;95414.72;;;17.47;100.00
40650;BME280;26342;42.826;23.992;2022-09-09T04:24:16;95423.50;;;17.52;100.00
40650;BME280;26342;42.826;23.992;2022-09-09T04:26:42;95420.28;;;17.50;100.00
40650;BME280;26342;42.826;23.992;2022-09-09T04:29:08;95421.09;;;17.51;100.00
40650;BME280;26342;42.826;23.992;2022-09-09T04:31:33;95423.09;;;17.59;100.00
40650;BME280;26342;42.826;23.992;2022-09-09T04:33:59;95427.50;;;17.55;100.00
40650;BME280;26342;42.826;23.992;2022-09-09T04:36:27;95433.28;;;17.48;100.00
40650;BME280;26342;42.826;23.992;2022-09-09T04:38:53;95432.50;;;17.48;100.00
40650;BME280;26342;42.826;23.992;2022-09-09T04:41:18;95438.38;;;17.50;100.00
40650;BME280;26342;42.826;23.992;2022-09-09T04:43:43;95439.00;;;17.47;100.00
40650;BME280;26342;42.826;23.992;2022-09-09T04:46:09;95433.00;;;17.50;100.00
40650;BME280;26342;42.826;23.992;2022-09-09T04:48:35;95429.31;;;17.46;100.00
40650;BME280;26342;42.826;23.992;2022-09-09T04:51:04;95440.19;;;17.54;100.00
40650;BME280;26342;42.826;23.992;2022-09-09T04:53:30;95445.28;;;17.56;100.00
40650;BME280;26342;42.826;23.992;2022-09-09T04:56:16;95444.69;;;17.59;100.00
40650;BME280;26342;42.826;23.992;2022-09-09T04:58:42;95449.50;;;17.62;100.00
40650;BME280;26342;42.826;23.992;2022-09-09T05:01:19;95443.44;;;17.70;100.00
40650;BME280;26342;42.826;23.992;2022-09-09T05:03:45;95450.03;;;17.78;100.00
40650;BME280;26342;42.826;23.992;2022-09-09T05:06:13;95434.91;;;17.77;100.00
40650;BME280;26342;42.826;23.992;2022-09-09T05:08:40;95432.34;;;17.85;100.00
40650;BME280;26342;42.826;23.992;2022-09-09T05:11:19;95428.00;;;17.98;100.00
40650;BME280;26342;42.826;23.992;2022-09-09T05:13:45;95410.78;;;18.08;100.00
40650;BME280;26342;42.826;23.992;2022-09-09T05:16:12;95413.88;;;18.15;100.00
40650;BME280;26342;42.826;23.992;2022-09-09T05:18:40;95411.78;;;18.26;100.00
40650;BME280;26342;42.826;23.992;2022-09-09T05:21:06;95417.66;;;18.28;100.00
40650;BME280;26342;42.826;23.992;2022-09-09T05:23:33;95414.03;;;18.32;100.00
40650;BME280;26342;42.826;23.992;2022-09-09T05:25:59;95417.31;;;18.43;100.00
40650;BME280;26342;42.826;23.992;2022-09-09T05:28:25;95398.47;;;18.52;100.00
40650;BME280;26342;42.826;23.992;2022-09-09T05:31:03;95407.94;;;18.63;100.00
40650;BME280;26342;42.826;23.992;2022-09-09T05:33:30;95413.63;;;18.75;100.00
40650;BME280;26342;42.826;23.992;2022-09-09T05:36:01;95408.66;;;18.91;99.55
40650;BME280;26342;42.826;23.992;2022-09-09T05:38:28;95404.53;;;18.93;98.66
40650;BME280;26342;42.826;23.992;2022-09-09T05:40:55;95398.50;;;18.96;98.28
40650;BME280;26342;42.826;23.992;2022-09-09T05:43:22;95399.94;;;19.03;97.76
40650;BME280;26342;42.826;23.992;2022-09-09T05:46:02;95393.19;;;19.14;96.62
40650;BME280;26342;42.826;23.992;2022-09-09T05:48:30;95387.88;;;19.31;97.84
40650;BME280;26342;42.826;23.992;2022-09-09T05:50:56;95380.91;;;19.39;97.57
40650;BME280;26342;42.826;23.992;2022-09-09T05:53:21;95391.00;;;19.56;96.88
40650;BME280;26342;42.826;23.992;2022-09-09T05:55:47;95387.25;;;19.74;95.17
40650;BME280;26342;42.826;23.992;2022-09-09T05:58:13;95385.41;;;19.92;95.53
40650;BME280;26342;42.826;23.992;2022-09-09T06:00:39;95382.38;;;20.02;94.62
40650;BME280;26342;42.826;23.992;2022-09-09T06:03:05;95379.09;;;20.22;95.65
40650;BME280;26342;42.826;23.992;2022-09-09T06:05:30;95389.28;;;20.43;95.48
40650;BME280;26342;42.826;23.992;2022-09-09T06:07:55;95384.53;;;20.57;92.32
40650;BME280;26342;42.826;23.992;2022-09-09T06:10:21;95380.19;;;20.82;91.62
40650;BME280;26342;42.826;23.992;2022-09-09T06:12:47;95376.69;;;20.90;88.72
40650;BME280;26342;42.826;23.992;2022-09-09T06:15:12;95377.41;;;21.16;91.12
40650;BME280;26342;42.826;23.992;2022-09-09T06:17:37;95384.72;;;21.25;87.61
40650;BME280;26342;42.826;23.992;2022-09-09T06:20:04;95385.69;;;21.37;89.46
40650;BME280;26342;42.826;23.992;2022-09-09T06:22:30;95377.94;;;21.57;85.08
40650;BME280;26342;42.826;23.992;2022-09-09T06:24:55;95367.63;;;21.71;86.94
40650;BME280;26342;42.826;23.992;2022-09-09T06:27:21;95378.56;;;21.92;84.27
40650;BME280;26342;42.826;23.992;2022-09-09T06:29:46;95373.03;;;22.09;85.10
40650;BME280;26342;42.826;23.992;2022-09-09T06:32:11;95376.44;;;22.27;84.38
40650;BME280;26342;42.826;23.992;2022-09-09T06:34:37;95385.59;;;22.43;82.91
40650;BME280;26342;42.826;23.992;2022-09-09T06:37:02;95380.69;;;22.57;80.57
40650;BME280;26342;42.826;23.992;2022-09-09T06:39:28;95379.72;;;22.74;80.33
40650;BME280;26342;42.826;23.992;2022-09-09T06:41:53;95385.88;;;22.92;79.15
40650;BME280;26342;42.826;23.992;2022-09-09T06:44:19;95375.34;;;23.03;77.41
40650;BME280;26342;42.826;23.992;2022-09-09T06:46:45;95380.25;;;23.22;76.37
40650;BME280;26342;42.826;23.992;2022-09-09T06:49:13;95390.97;;;23.39;77.18
40650;BME280;26342;42.826;23.992;2022-09-09T06:51:39;95389.50;;;23.54;75.69
40650;BME280;26342;42.826;23.992;2022-09-09T06:54:09;95384.44;;;23.77;73.62
40650;BME280;26342;42.826;23.992;2022-09-09T06:56:37;95382.88;;;23.88;73.06
40650;BME280;26342;42.826;23.992;2022-09-09T06:59:04;95382.75;;;23.97;74.18
40650;BME280;26342;42.826;23.992;2022-09-09T07:01:33;95379.47;;;24.03;73.16
40650;BME280;26342;42.826;23.992;2022-09-09T07:04:00;95386.38;;;24.13;74.44
40650;BME280;26342;42.826;23.992;2022-09-09T07:06:30;95383.38;;;24.30;72.61
40650;BME280;26342;42.826;23.992;2022-09-09T07:08:57;95377.81;;;24.39;73.84
40650;BME280;26342;42.826;23.992;2022-09-09T07:11:26;95374.81;;;24.56;73.00
40650;BME280;26342;42.826;23.992;2022-09-09T07:13:55;95384.47;;;24.66;75.89
40650;BME280;26342;42.826;23.992;2022-09-09T07:16:22;95396.13;;;24.78;77.50
40650;BME280;26342;42.826;23.992;2022-09-09T07:18:49;95394.31;;;24.83;76.89
40650;BME280;26342;42.826;23.992;2022-09-09T07:21:16;95405.28;;;24.98;76.72
40650;BME280;26342;42.826;23.992;2022-09-09T07:23:41;95388.59;;;25.16;76.27
40650;BME280;26342;42.826;23.992;2022-09-09T07:26:18;95396.47;;;25.33;75.17
40650;BME280;26342;42.826;23.992;2022-09-09T07:28:47;95391.75;;;25.46;75.87
40650;BME280;26342;42.826;23.992;2022-09-09T07:31:18;95390.16;;;25.60;70.46
40650;BME280;26342;42.826;23.992;2022-09-09T07:33:44;95396.44;;;25.77;71.25
40650;BME280;26342;42.826;23.992;2022-09-09T07:36:14;95393.25;;;25.75;71.41
40650;BME280;26342;42.826;23.992;2022-09-09T07:38:41;95395.97;;;25.91;72.10
40650;BME280;26342;42.826;23.992;2022-09-09T07:41:10;95391.31;;;26.07;70.38
40650;BME280;26342;42.826;23.992;2022-09-09T07:43:41;95392.78;;;26.20;69.71
40650;BME280;26342;42.826;23.992;2022-09-09T07:46:07;95397.78;;;26.34;65.89
40650;BME280;26342;42.826;23.992;2022-09-09T07:48:33;95392.94;;;26.43;65.43
40650;BME280;26342;42.826;23.992;2022-09-09T07:51:07;95391.78;;;26.44;67.08
40650;BME280;26342;42.826;23.992;2022-09-09T07:53:34;95380.88;;;26.63;62.79
40650;BME280;26342;42.826;23.992;2022-09-09T07:56:10;95385.59;;;26.66;64.23
40650;BME280;26342;42.826;23.992;2022-09-09T07:58:37;95383.53;;;26.79;66.42
40650;BME280;26342;42.826;23.992;2022-09-09T08:01:34;95371.91;;;26.86;65.08
40650;BME280;26342;42.826;23.992;2022-09-09T08:04:07;95378.22;;;27.06;63.69
40650;BME280;26342;42.826;23.992;2022-09-09T08:06:38;95378.53;;;27.23;61.55
40650;BME280;26342;42.826;23.992;2022-09-09T08:09:06;95377.28;;;27.40;61.53
40650;BME280;26342;42.826;23.992;2022-09-09T08:11:32;95379.56;;;27.58;59.33
40650;BME280;26342;42.826;23.992;2022-09-09T08:13:58;95373.19;;;27.73;58.69
40650;BME280;26342;42.826;23.992;2022-09-09T08:16:27;95380.78;;;27.83;58.17
40650;BME280;26342;42.826;23.992;2022-09-09T08:18:53;95369.06;;;27.86;57.58
40650;BME280;26342;42.826;23.992;2022-09-09T08:21:25;95374.69;;;27.93;58.46
40650;BME280;26342;42.826;23.992;2022-09-09T08:23:56;95369.34;;;28.04;57.70
40650;BME280;26342;42.826;23.992;2022-09-09T08:28:51;95369.19;;;28.20;54.61
40650;BME280;26342;42.826;23.992;2022-09-09T08:31:20;95375.56;;;28.27;57.67
40650;BME280;26342;42.826;23.992;2022-09-09T08:33:46;95370.00;;;28.47;55.31
40650;BME280;26342;42.826;23.992;2022-09-09T08:36:14;95374.06;;;28.56;56.43
40650;BME280;26342;42.826;23.992;2022-09-09T08:38:41;95376.59;;;28.72;53.01
40650;BME280;26342;42.826;23.992;2022-09-09T08:43:50;95371.38;;;29.27;54.92
40650;BME280;26342;42.826;23.992;2022-09-09T08:46:36;95378.72;;;29.50;49.33
40650;BME280;26342;42.826;23.992;2022-09-09T08:51:45;95356.06;;;29.63;48.83
40650;BME280;26342;42.826;23.992;2022-09-09T08:54:10;95369.97;;;29.85;49.37
40650;BME280;26342;42.826;23.992;2022-09-09T08:56:36;95379.13;;;29.99;49.90
40650;BME280;26342;42.826;23.992;2022-09-09T08:59:03;95375.00;;;30.23;47.14
40650;BME280;26342;42.826;23.992;2022-09-09T09:04:32;95367.44;;;30.68;41.73
40650;BME280;26342;42.826;23.992;2022-09-09T09:07:22;95364.63;;;30.61;37.64
40650;BME280;26342;42.826;23.992;2022-09-09T09:12:42;95362.53;;;30.37;38.82
40650;BME280;26342;42.826;23.992;2022-09-09T09:15:18;95369.72;;;30.59;38.28
40650;BME280;26342;42.826;23.992;2022-09-09T09:17:44;95360.78;;;30.80;37.86
40650;BME280;26342;42.826;23.992;2022-09-09T09:20:14;95359.22;;;30.75;37.27
40650;BME280;26342;42.826;23.992;2022-09-09T09:22:50;95355.28;;;30.80;38.33
40650;BME280;26342;42.826;23.992;2022-09-09T09:25:22;95362.88;;;31.11;39.46
40650;BME280;26342;42.826;23.992;2022-09-09T09:30:42;95357.78;;;31.17;37.41
40650;BME280;26342;42.826;23.992;2022-09-09T09:35:55;95353.16;;;31.46;35.83
40650;BME280;26342;42.826;23.992;2022-09-09T09:38:24;95351.97;;;31.61;36.26
40650;BME280;26342;42.826;23.992;2022-09-09T09:40:51;95339.38;;;31.82;34.94
40650;BME280;26342;42.826;23.992;2022-09-09T09:43:23;95348.84;;;32.13;35.01
40650;BME280;26342;42.826;23.992;2022-09-09T09:45:50;95343.34;;;31.88;34.06
40650;BME280;26342;42.826;23.992;2022-09-09T09:48:15;95352.81;;;31.87;36.16
40650;BME280;26342;42.826;23.992;2022-09-09T09:51:02;95354.38;;;31.88;37.95
40650;BME280;26342;42.826;23.992;2022-09-09T09:53:30;95350.84;;;31.94;37.36
40650;BME280;26342;42.826;23.992;2022-09-09T09:56:08;95352.81;;;31.94;37.41
40650;BME280;26342;42.826;23.992;2022-09-09T09:58:49;95359.06;;;32.30;38.79
40650;BME280;26342;42.826;23.992;2022-09-09T10:01:30;95355.88;;;32.57;34.22
40650;BME280;26342;42.826;23.992;2022-09-09T10:04:20;95346.28;;;32.93;39.12
40650;BME280;26342;42.826;23.992;2022-09-09T10:06:45;95341.47;;;33.12;35.52
40650;BME280;26342;42.826;23.992;2022-09-09T10:09:30;95345.28;;;33.36;35.55
40650;BME280;26342;42.826;23.992;2022-09-09T10:14:45;95329.94;;;33.24;31.95
40650;BME280;26342;42.826;23.992;2022-09-09T10:22:34;95345.91;;;32.95;32.88
40650;BME280;26342;42.826;23.992;2022-09-09T10:25:29;95351.47;;;32.70;33.02
40650;BME280;26342;42.826;23.992;2022-09-09T10:28:10;95349.50;;;32.74;34.62
40650;BME280;26342;42.826;23.992;2022-09-09T10:31:15;95352.56;;;33.01;36.47
40650;BME280;26342;42.826;23.992;2022-09-09T10:33:59;95345.38;;;33.18;38.89
40650;BME280;26342;42.826;23.992;2022-09-09T10:36:27;95348.53;;;33.20;33.04
40650;BME280;26342;42.826;23.992;2022-09-09T10:38:57;95354.97;;;32.99;32.17
40650;BME280;26342;42.826;23.992;2022-09-09T10:41:50;95348.78;;;32.52;33.37
40650;BME280;26342;42.826;23.992;2022-09-09T10:44:23;95359.47;;;32.36;32.96
40650;BME280;26342;42.826;23.992;2022-09-09T10:52:58;95351.94;;;31.33;35.05
40650;BME280;26342;42.826;23.992;2022-09-09T10:55:37;95356.13;;;30.91;36.21
40650;BME280;26342;42.826;23.992;2022-09-09T10:58:05;95360.84;;;30.21;37.31
40650;BME280;26342;42.826;23.992;2022-09-09T11:00:44;95348.31;;;30.31;39.91
40650;BME280;26342;42.826;23.992;2022-09-09T11:03:23;95361.38;;;30.45;39.50
40650;BME280;26342;42.826;23.992;2022-09-09T11:05:53;95348.72;;;30.33;39.87
40650;BME280;26342;42.826;23.992;2022-09-09T11:08:25;95356.22;;;30.36;39.15
40650;BME280;26342;42.826;23.992;2022-09-09T11:11:03;95353.00;;;30.23;37.54
40650;BME280;26342;42.826;23.992;2022-09-09T11:16:46;95362.03;;;30.20;37.99
40650;BME280;26342;42.826;23.992;2022-09-09T11:22:01;95363.00;;;29.98;39.36
40650;BME280;26342;42.826;23.992;2022-09-09T11:24:37;95358.22;;;29.88;38.33
40650;BME280;26342;42.826;23.992;2022-09-09T11:27:16;95346.38;;;29.80;39.72
40650;BME280;26342;42.826;23.992;2022-09-09T11:40:23;95354.09;;;29.27;40.03
40650;BME280;26342;42.826;23.992;2022-09-09T11:43:02;95360.69;;;29.18;39.95
40650;BME280;26342;42.826;23.992;2022-09-09T11:45:29;95361.47;;;29.15;42.10
40650;BME280;26342;42.826;23.992;2022-09-09T11:47:58;95356.75;;;29.16;40.39
40650;BME280;26342;42.826;23.992;2022-09-09T11:52:50;95350.81;;;29.14;42.57
40650;BME280;26342;42.826;23.992;2022-09-09T11:55:27;95345.75;;;29.16;43.64
40650;BME280;26342;42.826;23.992;2022-09-09T11:58:02;95350.81;;;29.14;43.97
40650;BME280;26342;42.826;23.992;2022-09-09T12:00:43;95354.75;;;29.13;43.88
40650;BME280;26342;42.826;23.992;2022-09-09T12:06:26;95350.34;;;29.05;46.01
40650;BME280;26342;42.826;23.992;2022-09-09T12:08:57;95338.41;;;28.90;46.01
40650;BME280;26342;42.826;23.992;2022-09-09T12:11:29;95359.91;;;28.84;43.68
40650;BME280;26342;42.826;23.992;2022-09-09T12:13:58;95350.34;;;28.75;41.09
40650;BME280;26342;42.826;23.992;2022-09-09T12:16:34;95350.31;;;28.71;45.14
40650;BME280;26342;42.826;23.992;2022-09-09T12:24:19;95320.22;;;28.48;43.40
40650;BME280;26342;42.826;23.992;2022-09-09T12:26:54;95323.44;;;28.54;47.00
40650;BME280;26342;42.826;23.992;2022-09-09T12:29:36;95321.06;;;28.52;45.18
40650;BME280;26342;42.826;23.992;2022-09-09T12:32:10;95327.56;;;28.41;44.20
40650;BME280;26342;42.826;23.992;2022-09-09T12:40:00;95317.78;;;28.13;50.34
40650;BME280;26342;42.826;23.992;2022-09-09T12:42:28;95309.84;;;28.08;50.65
40650;BME280;26342;42.826;23.992;2022-09-09T12:44:59;95316.50;;;28.07;49.13
40650;BME280;26342;42.826;23.992;2022-09-09T12:50:35;95324.22;;;27.98;48.08
40650;BME280;26342;42.826;23.992;2022-09-09T12:53:07;95330.13;;;28.00;50.21
40650;BME280;26342;42.826;23.992;2022-09-09T12:55:37;95323.69;;;27.89;49.18
40650;BME280;26342;42.826;23.992;2022-09-09T12:58:06;95328.81;;;27.90;51.53
40650;BME280;26342;42.826;23.992;2022-09-09T13:00:36;95314.66;;;27.88;48.30
40650;BME280;26342;42.826;23.992;2022-09-09T13:03:14;95305.59;;;27.84;48.31
40650;BME280;26342;42.826;23.992;2022-09-09T13:05:41;95307.91;;;27.82;46.43
40650;BME280;26342;42.826;23.992;2022-09-09T13:08:15;95293.69;;;27.73;45.49
40650;BME280;26342;42.826;23.992;2022-09-09T13:10:51;95294.47;;;27.73;47.80
40650;BME280;26342;42.826;23.992;2022-09-09T13:13:22;95291.34;;;27.75;47.25
40650;BME280;26342;42.826;23.992;2022-09-09T13:15:54;95291.03;;;27.80;48.95
40650;BME280;26342;42.826;23.992;2022-09-09T13:18:28;95277.28;;;27.76;50.42
40650;BME280;26342;42.826;23.992;2022-09-09T13:20:54;95277.88;;;27.89;48.99
40650;BME280;26342;42.826;23.992;2022-09-09T13:23:29;95270.38;;;27.86;48.33
40650;BME280;26342;42.826;23.992;2022-09-09T13:25:58;95276.25;;;27.88;48.86
40650;BME280;26342;42.826;23.992;2022-09-09T13:28:27;95275.91;;;27.90;47.95
40650;BME280;26342;42.826;23.992;2022-09-09T13:30:57;95279.34;;;27.83;47.13
40650;BME280;26342;42.826;23.992;2022-09-09T13:33:38;95283.69;;;27.88;46.24
40650;BME280;26342;42.826;23.992;2022-09-09T13:36:07;95278.97;;;27.85;46.41
40650;BME280;26342;42.826;23.992;2022-09-09T13:38:36;95259.34;;;27.83;45.57
40650;BME280;26342;42.826;23.992;2022-09-09T13:41:08;95274.78;;;27.94;47.66
40650;BME280;26342;42.826;23.992;2022-09-09T13:43:42;95277.50;;;27.91;46.71
40650;BME280;26342;42.826;23.992;2022-09-09T13:46:36;95276.38;;;27.95;45.30
40650;BME280;26342;42.826;23.992;2022-09-09T13:49:20;95278.69;;;27.93;47.30
40650;BME280;26342;42.826;23.992;2022-09-09T13:51:48;95288.09;;;27.92;48.01
40650;BME280;26342;42.826;23.992;2022-09-09T13:54:18;95273.88;;;27.87;48.51
40650;BME280;26342;42.826;23.992;2022-09-09T13:56:44;95264.06;;;27.82;47.68
40650;BME280;26342;42.826;23.992;2022-09-09T13:59:13;95264.78;;;27.79;47.50
40650;BME280;26342;42.826;23.992;2022-09-09T14:01:39;95282.38;;;27.78;47.46
40650;BME280;26342;42.826;23.992;2022-09-09T14:04:05;95272.59;;;27.77;49.02
40650;BME280;26342;42.826;23.992;2022-09-09T14:06:32;95277.28;;;27.76;49.24
40650;BME280;26342;42.826;23.992;2022-09-09T14:08:58;95278.06;;;27.77;47.90
40650;BME280;26342;42.826;23.992;2022-09-09T14:11:24;95281.91;;;27.72;47.35
40650;BME280;26342;42.826;23.992;2022-09-09T14:13:49;95279.50;;;27.67;51.59
40650;BME280;26342;42.826;23.992;2022-09-09T14:16:16;95284.31;;;27.74;47.92
40650;BME280;26342;42.826;23.992;2022-09-09T14:18:43;95277.88;;;27.66;46.70
40650;BME280;26342;42.826;23.992;2022-09-09T14:21:09;95279.72;;;27.59;46.00
40650;BME280;26342;42.826;23.992;2022-09-09T14:23:34;95281.19;;;27.52;46.31
40650;BME280;26342;42.826;23.992;2022-09-09T14:26:00;95266.22;;;27.46;47.78
40650;BME280;26342;42.826;23.992;2022-09-09T14:28:26;95258.34;;;27.45;49.30
40650;BME280;26342;42.826;23.992;2022-09-09T14:30:54;95259.44;;;27.40;50.27
40650;BME280;26342;42.826;23.992;2022-09-09T14:33:19;95271.31;;;27.48;49.07
40650;BME280;26342;42.826;23.992;2022-09-09T14:35:45;95270.16;;;27.49;50.06
40650;BME280;26342;42.826;23.992;2022-09-09T14:38:11;95262.78;;;27.53;48.63
40650;BME280;26342;42.826;23.992;2022-09-09T14:40:37;95263.97;;;27.52;50.56
40650;BME280;26342;42.826;23.992;2022-09-09T14:43:04;95253.78;;;27.52;51.39
40650;BME280;26342;42.826;23.992;2022-09-09T14:45:31;95247.03;;;27.46;50.77
40650;BME280;26342;42.826;23.992;2022-09-09T14:47:57;95255.72;;;27.52;50.45